Time;durP1;ratioP1;P1;durP2;ratioP2;P2;SDS_P1;SDS_P2;PMS_P1;PMS_P2;Temp;Humidity;BMP_temperature;BMP_pressure;BME280_temperature;BME280_humidity;BME280_pressure;Samples;Min_cycle;Max_cycle;Signal;HPM_P1;HPM_P2
2022/06/19 00:01:48;;;;;;;;;;;23.90;99.90;;;;;;5035418;28;19924;-67
2022/06/19 00:04:15;;;;;;;;;;;24.00;99.90;;;;;;5033407;28;19925;-67
2022/06/19 00:06:43;;;;;;;;;;;23.90;99.90;;;;;;5036285;28;20020;-67
2022/06/19 00:09:09;;;;;;;;;;;23.90;99.90;;;;;;5041438;28;19925;-67
2022/06/19 00:11:39;;;;;;;;;;;23.80;99.90;;;;;;5033606;28;19961;-67
2022/06/19 00:14:08;;;;;;;;;;;23.80;99.90;;;;;;5040896;28;19960;-68
2022/06/19 00:16:35;;;;;;;;;;;23.70;99.90;;;;;;5046800;28;19925;-68
2022/06/19 00:19:02;;;;;;;;;;;23.60;99.90;;;;;;5040244;28;19987;-66
2022/06/19 00:21:29;;;;;;;;;;;23.50;99.90;;;;;;5031060;28;20281;-68
2022/06/19 00:23:56;;;;;;;;;;;23.40;99.90;;;;;;5024370;28;19925;-67
2022/06/19 00:26:22;;;;;;;;;;;23.40;99.90;;;;;;5046515;28;19936;-68
2022/06/19 00:28:50;;;;;;;;;;;23.40;99.90;;;;;;5036772;28;20019;-68
2022/06/19 00:31:18;;;;;;;;;;;23.30;99.90;;;;;;5034149;28;19925;-68
2022/06/19 00:33:44;;;;;;;;;;;23.20;99.90;;;;;;5036246;28;19975;-68
2022/06/19 00:36:11;;;;;;;;;;;23.20;99.90;;;;;;5038530;28;20356;-67
2022/06/19 00:38:38;;;;;;;;;;;23.10;99.90;;;;;;5035534;28;19925;-67
2022/06/19 00:41:05;;;;;;;;;;;23.10;99.90;;;;;;5030918;28;19929;-70
2022/06/19 00:43:31;;;;;;;;;;;23.00;99.90;;;;;;5030532;28;19926;-69
2022/06/19 00:46:01;;;;;;;;;;;23.00;99.90;;;;;;5036789;28;19960;-68
2022/06/19 00:48:31;;;;;;;;;;;22.90;99.90;;;;;;5034117;28;19944;-68
2022/06/19 00:51:02;;;;;;;;;;;23.00;99.90;;;;;;5035827;28;19925;-68
2022/06/19 00:53:30;;;;;;;;;;;23.00;99.90;;;;;;5046407;28;19925;-68
2022/06/19 00:55:58;;;;;;;;;;;23.00;99.90;;;;;;5034649;28;19929;-68
2022/06/19 00:58:26;;;;;;;;;;;23.00;99.90;;;;;;5037490;28;19971;-68
2022/06/19 01:00:55;;;;;;;;;;;22.90;99.90;;;;;;5033858;28;19929;-68
2022/06/19 01:03:24;;;;;;;;;;;22.90;99.90;;;;;;5036136;28;20395;-68
2022/06/19 01:05:53;;;;;;;;;;;22.90;99.90;;;;;;5032909;28;19925;-67
2022/06/19 01:08:20;;;;;;;;;;;22.90;99.90;;;;;;5031932;28;20355;-68
2022/06/19 01:10:48;;;;;;;;;;;22.90;99.90;;;;;;5037595;28;19929;-68
2022/06/19 01:13:16;;;;;;;;;;;22.90;99.90;;;;;;5034417;28;19932;-67
2022/06/19 01:15:43;;;;;;;;;;;22.90;99.90;;;;;;5027014;28;19929;-68
2022/06/19 01:18:12;;;;;;;;;;;22.80;99.90;;;;;;5040616;28;19925;-68
2022/06/19 01:20:40;;;;;;;;;;;22.70;99.90;;;;;;5032559;28;19929;-68
2022/06/19 01:23:14;;;;;;;;;;;22.60;99.90;;;;;;5039561;28;20656;-68
2022/06/19 01:25:43;;;;;;;;;;;22.70;99.90;;;;;;5023427;28;19925;-68
2022/06/19 01:30:58;;;;;;;;;;;22.60;99.90;;;;;;5031910;28;19921;-67
2022/06/19 01:33:36;;;;;;;;;;;22.60;99.90;;;;;;5029511;28;19991;-68
2022/06/19 01:36:03;;;;;;;;;;;22.60;99.90;;;;;;5038463;28;20376;-67
2022/06/19 01:38:30;;;;;;;;;;;22.60;99.90;;;;;;5031697;28;19925;-68
2022/06/19 01:41:02;;;;;;;;;;;22.40;99.90;;;;;;5029814;28;19932;-68
2022/06/19 01:43:29;;;;;;;;;;;22.30;99.90;;;;;;5029706;28;19925;-67
2022/06/19 01:45:56;;;;;;;;;;;22.20;99.90;;;;;;5030029;28;19925;-68
2022/06/19 01:48:24;;;;;;;;;;;22.10;99.90;;;;;;5030153;28;19978;-68
2022/06/19 01:50:53;;;;;;;;;;;22.10;99.90;;;;;;5029549;28;19929;-68
2022/06/19 01:53:22;;;;;;;;;;;22.00;99.90;;;;;;5029391;28;19925;-67
2022/06/19 01:55:49;;;;;;;;;;;21.80;99.90;;;;;;5026486;28;20393;-68
2022/06/19 01:58:18;;;;;;;;;;;21.70;99.90;;;;;;5027897;28;20451;-68
2022/06/19 02:00:47;;;;;;;;;;;21.50;99.90;;;;;;5029468;28;19971;-68
2022/06/19 02:03:17;;;;;;;;;;;21.40;99.90;;;;;;5029823;28;19961;-68
2022/06/19 02:05:44;;;;;;;;;;;21.30;99.90;;;;;;5029374;28;19933;-67
2022/06/19 02:08:11;;;;;;;;;;;21.00;99.90;;;;;;5029631;28;20413;-67
2022/06/19 02:10:40;;;;;;;;;;;20.90;99.90;;;;;;5029342;28;20397;-68
2022/06/19 02:13:08;;;;;;;;;;;20.80;99.90;;;;;;5024925;28;19925;-67
2022/06/19 02:15:36;;;;;;;;;;;20.60;99.90;;;;;;5022120;28;19926;-68
2022/06/19 02:18:06;;;;;;;;;;;20.60;99.90;;;;;;5028335;28;19928;-67
2022/06/19 02:20:33;;;;;;;;;;;20.50;99.90;;;;;;5021731;28;19925;-67
2022/06/19 02:23:01;;;;;;;;;;;20.40;99.90;;;;;;5029650;28;19926;-68
2022/06/19 02:25:28;;;;;;;;;;;20.30;99.90;;;;;;5029279;28;19937;-67
2022/06/19 02:28:02;;;;;;;;;;;20.20;99.90;;;;;;5029467;28;19925;-66
2022/06/19 02:30:29;;;;;;;;;;;20.20;99.90;;;;;;5044804;28;20439;-67
2022/06/19 02:32:58;;;;;;;;;;;20.10;99.90;;;;;;5028966;28;19960;-67
2022/06/19 02:35:25;;;;;;;;;;;20.00;99.90;;;;;;5028870;28;19929;-66
2022/06/19 02:37:54;;;;;;;;;;;19.80;99.90;;;;;;5023314;28;20032;-68
2022/06/19 02:40:25;;;;;;;;;;;19.70;99.90;;;;;;5028990;28;19929;-68
2022/06/19 02:42:52;;;;;;;;;;;19.60;99.90;;;;;;5025928;28;19925;-66
2022/06/19 02:45:20;;;;;;;;;;;19.50;99.90;;;;;;5033968;28;19925;-67
2022/06/19 02:47:48;;;;;;;;;;;19.40;99.90;;;;;;5033262;28;19925;-67
2022/06/19 02:50:18;;;;;;;;;;;19.30;99.90;;;;;;5032997;28;19929;-68
2022/06/19 02:52:45;;;;;;;;;;;19.20;99.90;;;;;;5033035;28;20367;-68
2022/06/19 02:55:12;;;;;;;;;;;19.20;99.90;;;;;;5033045;28;19925;-67
2022/06/19 02:57:39;;;;;;;;;;;19.10;99.90;;;;;;5033085;28;19929;-68
2022/06/19 03:00:07;;;;;;;;;;;19.00;99.90;;;;;;5032766;28;19929;-67
2022/06/19 03:02:33;;;;;;;;;;;18.90;99.90;;;;;;5031309;28;19925;-67
2022/06/19 03:05:02;;;;;;;;;;;18.80;99.90;;;;;;5032901;28;20316;-67
2022/06/19 03:07:30;;;;;;;;;;;18.80;99.90;;;;;;5033094;28;19933;-67
2022/06/19 03:09:57;;;;;;;;;;;18.70;99.90;;;;;;5031767;28;19933;-67
2022/06/19 03:12:24;;;;;;;;;;;18.50;99.90;;;;;;5034553;28;19933;-67
2022/06/19 03:14:51;;;;;;;;;;;18.30;99.90;;;;;;5034732;28;19925;-67
2022/06/19 03:17:19;;;;;;;;;;;18.20;99.90;;;;;;5032760;28;19925;-67
2022/06/19 03:19:46;;;;;;;;;;;18.10;99.90;;;;;;5032361;28;19925;-67
2022/06/19 03:22:13;;;;;;;;;;;17.90;99.90;;;;;;5032449;28;19940;-66
2022/06/19 03:24:41;;;;;;;;;;;17.90;99.90;;;;;;5032728;28;19933;-67
2022/06/19 03:27:10;;;;;;;;;;;17.90;99.90;;;;;;5032347;28;19933;-67
2022/06/19 03:29:36;;;;;;;;;;;17.80;99.90;;;;;;5032613;28;19925;-67
2022/06/19 03:32:04;;;;;;;;;;;17.70;99.90;;;;;;5032610;28;19931;-67
2022/06/19 03:34:31;;;;;;;;;;;17.70;99.90;;;;;;5026450;28;19929;-67
2022/06/19 03:36:58;;;;;;;;;;;17.70;99.90;;;;;;5032217;28;19933;-67
2022/06/19 03:39:25;;;;;;;;;;;17.50;99.90;;;;;;5032409;28;19925;-67
2022/06/19 03:41:53;;;;;;;;;;;17.40;99.90;;;;;;5032114;28;20000;-67
2022/06/19 03:44:20;;;;;;;;;;;17.30;99.90;;;;;;5031551;28;19925;-67
2022/06/19 03:46:47;;;;;;;;;;;17.20;99.90;;;;;;5032202;28;19924;-67
2022/06/19 03:49:14;;;;;;;;;;;17.10;99.90;;;;;;5031738;28;19932;-67
2022/06/19 03:51:40;;;;;;;;;;;17.10;99.90;;;;;;5032514;28;19929;-67
2022/06/19 03:54:09;;;;;;;;;;;17.00;99.90;;;;;;5031231;28;19951;-67
2022/06/19 03:56:36;;;;;;;;;;;16.90;99.90;;;;;;5025127;28;20007;-67
2022/06/19 03:59:07;;;;;;;;;;;16.80;99.90;;;;;;5030793;28;20359;-67
2022/06/19 04:01:35;;;;;;;;;;;16.80;99.90;;;;;;5028347;28;19947;-66
2022/06/19 04:04:01;;;;;;;;;;;16.70;99.90;;;;;;5031459;28;19929;-67
2022/06/19 04:06:29;;;;;;;;;;;16.70;99.90;;;;;;5029438;28;19937;-67
2022/06/19 04:08:56;;;;;;;;;;;16.70;99.90;;;;;;5032213;28;19948;-66
2022/06/19 04:11:24;;;;;;;;;;;16.70;99.90;;;;;;5031817;28;19959;-67
2022/06/19 04:13:52;;;;;;;;;;;16.70;99.90;;;;;;5031764;28;19926;-68
2022/06/19 04:16:22;;;;;;;;;;;16.70;99.90;;;;;;5031384;28;20384;-68
2022/06/19 04:18:49;;;;;;;;;;;16.70;99.90;;;;;;5031716;28;19929;-67
2022/06/19 04:21:17;;;;;;;;;;;16.80;99.90;;;;;;5026794;28;19952;-68
2022/06/19 04:23:44;;;;;;;;;;;16.70;99.90;;;;;;5031355;28;20351;-69
2022/06/19 04:26:12;;;;;;;;;;;16.50;99.90;;;;;;5027498;28;19929;-68
2022/06/19 04:28:39;;;;;;;;;;;16.40;99.90;;;;;;5031537;28;19925;-68
2022/06/19 04:31:06;;;;;;;;;;;16.50;99.90;;;;;;5031434;28;19933;-68
2022/06/19 04:33:38;;;;;;;;;;;16.40;99.90;;;;;;5025268;28;19975;-69
2022/06/19 04:36:06;;;;;;;;;;;16.30;99.90;;;;;;5031532;28;20035;-68
2022/06/19 04:38:33;;;;;;;;;;;16.40;99.90;;;;;;5020812;28;19933;-68
2022/06/19 04:41:00;;;;;;;;;;;16.50;99.90;;;;;;5040855;28;19925;-68
2022/06/19 04:43:26;;;;;;;;;;;16.60;99.90;;;;;;5029150;28;19929;-67
2022/06/19 04:46:01;;;;;;;;;;;16.50;99.90;;;;;;5026551;28;20347;-68
2022/06/19 04:48:27;;;;;;;;;;;16.60;99.90;;;;;;5030930;28;20710;-69
2022/06/19 04:50:56;;;;;;;;;;;16.60;99.90;;;;;;5031249;28;19925;-68
2022/06/19 04:53:22;;;;;;;;;;;16.70;99.90;;;;;;5027864;28;19925;-68
2022/06/19 04:55:49;;;;;;;;;;;16.70;99.90;;;;;;5030965;28;19925;-68
2022/06/19 04:58:16;;;;;;;;;;;16.50;99.90;;;;;;5029498;28;20470;-68
2022/06/19 05:00:43;;;;;;;;;;;16.50;99.90;;;;;;5026558;28;19972;-67
2022/06/19 05:03:10;;;;;;;;;;;16.60;99.90;;;;;;5026853;28;19929;-68
2022/06/19 05:05:36;;;;;;;;;;;16.70;99.90;;;;;;5027738;28;20351;-68
2022/06/19 05:08:05;;;;;;;;;;;16.80;99.90;;;;;;5031446;28;20396;-68
2022/06/19 05:10:31;;;;;;;;;;;16.80;99.90;;;;;;5030342;28;19972;-68
2022/06/19 05:12:58;;;;;;;;;;;16.90;99.90;;;;;;5030531;28;19987;-69
2022/06/19 05:15:25;;;;;;;;;;;16.90;99.90;;;;;;5030605;28;19925;-68
2022/06/19 05:17:52;;;;;;;;;;;16.90;99.90;;;;;;5030621;28;19929;-68
2022/06/19 05:20:19;;;;;;;;;;;17.00;99.90;;;;;;5030370;28;19971;-70
2022/06/19 05:22:45;;;;;;;;;;;17.00;99.90;;;;;;5030210;28;19925;-67
2022/06/19 05:25:14;;;;;;;;;;;17.00;99.90;;;;;;5029415;28;19933;-67
2022/06/19 05:27:41;;;;;;;;;;;16.90;99.90;;;;;;5029652;28;19929;-68
2022/06/19 05:30:11;;;;;;;;;;;16.90;99.90;;;;;;5028110;28;20415;-68
2022/06/19 05:32:38;;;;;;;;;;;16.80;99.90;;;;;;5028612;28;19936;-69
2022/06/19 05:35:05;;;;;;;;;;;17.00;99.90;;;;;;5029670;28;19925;-68
2022/06/19 05:37:31;;;;;;;;;;;17.20;99.90;;;;;;5029498;28;19987;-68
2022/06/19 05:39:58;;;;;;;;;;;17.20;99.90;;;;;;5029629;28;19925;-68
2022/06/19 05:42:27;;;;;;;;;;;17.20;99.90;;;;;;5029398;28;19968;-68
2022/06/19 05:44:54;;;;;;;;;;;17.10;99.90;;;;;;5026798;28;20156;-67
2022/06/19 05:47:20;;;;;;;;;;;17.20;99.90;;;;;;5029456;28;19929;-68
2022/06/19 05:49:47;;;;;;;;;;;17.20;99.90;;;;;;5027362;28;20351;-69
2022/06/19 05:52:15;;;;;;;;;;;17.20;99.90;;;;;;5027705;28;19952;-68
2022/06/19 05:54:42;;;;;;;;;;;17.40;99.90;;;;;;5034258;28;19988;-68
2022/06/19 05:57:09;;;;;;;;;;;17.40;99.90;;;;;;5026716;28;19929;-67
2022/06/19 05:59:37;;;;;;;;;;;17.40;99.90;;;;;;5027708;28;19925;-68
2022/06/19 06:02:04;;;;;;;;;;;17.50;99.90;;;;;;5029398;28;19928;-68
2022/06/19 06:04:31;;;;;;;;;;;17.50;99.90;;;;;;5029421;28;19929;-68
2022/06/19 06:06:58;;;;;;;;;;;17.70;99.90;;;;;;5029841;28;20486;-69
2022/06/19 06:09:25;;;;;;;;;;;17.70;99.90;;;;;;5029409;28;19925;-67
2022/06/19 06:11:52;;;;;;;;;;;17.70;99.90;;;;;;5027856;28;19940;-69
2022/06/19 06:14:18;;;;;;;;;;;17.90;99.90;;;;;;5027976;28;19925;-68
2022/06/19 06:16:47;;;;;;;;;;;18.10;99.90;;;;;;5027559;28;19929;-67
2022/06/19 06:19:13;;;;;;;;;;;18.40;99.90;;;;;;5029040;28;19925;-68
2022/06/19 06:21:40;;;;;;;;;;;18.60;99.90;;;;;;5029452;28;19992;-67
2022/06/19 06:24:07;;;;;;;;;;;18.80;99.90;;;;;;5029208;28;19925;-68
2022/06/19 06:26:34;;;;;;;;;;;18.80;99.90;;;;;;5025349;28;19925;-68
2022/06/19 06:29:01;;;;;;;;;;;19.00;99.90;;;;;;5030222;28;19936;-68
2022/06/19 06:31:28;;;;;;;;;;;19.10;99.90;;;;;;5029301;28;19932;-68
2022/06/19 06:33:56;;;;;;;;;;;19.20;99.90;;;;;;5028401;28;19925;-68
2022/06/19 06:36:23;;;;;;;;;;;19.30;99.90;;;;;;5029652;28;19925;-68
2022/06/19 06:38:50;;;;;;;;;;;19.20;99.90;;;;;;5024448;28;19932;-68
2022/06/19 06:41:17;;;;;;;;;;;19.10;99.90;;;;;;5044165;28;20028;-67
2022/06/19 06:43:45;;;;;;;;;;;18.80;99.90;;;;;;5039854;28;19937;-68
2022/06/19 06:46:13;;;;;;;;;;;18.60;99.90;;;;;;5028849;28;20043;-68
2022/06/19 06:48:40;;;;;;;;;;;18.40;99.90;;;;;;5054478;28;19933;-69
2022/06/19 06:51:10;;;;;;;;;;;18.50;99.90;;;;;;5033642;28;19925;-69
2022/06/19 06:53:36;;;;;;;;;;;18.30;99.90;;;;;;5036374;28;19933;-69
2022/06/19 06:56:03;;;;;;;;;;;18.50;99.90;;;;;;5031639;28;19925;-69
2022/06/19 06:58:30;;;;;;;;;;;18.80;99.90;;;;;;5028869;28;20031;-68
2022/06/19 07:00:57;;;;;;;;;;;18.90;99.90;;;;;;5029645;28;19979;-68
2022/06/19 07:03:24;;;;;;;;;;;18.80;99.90;;;;;;5030813;28;19925;-68
2022/06/19 07:05:51;;;;;;;;;;;18.30;99.90;;;;;;5046796;28;20281;-68
2022/06/19 07:08:19;;;;;;;;;;;18.00;99.90;;;;;;5029680;28;19929;-68
2022/06/19 07:10:46;;;;;;;;;;;18.00;99.90;;;;;;5032635;28;19998;-68
2022/06/19 07:13:14;;;;;;;;;;;18.00;99.90;;;;;;5031500;28;19929;-68
2022/06/19 07:15:41;;;;;;;;;;;18.00;99.90;;;;;;5031822;28;19925;-68
2022/06/19 07:18:07;;;;;;;;;;;18.00;99.90;;;;;;5031756;28;19929;-69
2022/06/19 07:20:34;;;;;;;;;;;18.30;99.90;;;;;;5028949;28;20340;-69
2022/06/19 07:23:03;;;;;;;;;;;18.30;99.90;;;;;;5043404;28;19933;-68
2022/06/19 07:25:32;;;;;;;;;;;18.20;99.90;;;;;;5019895;28;19975;-68
2022/06/19 07:28:00;;;;;;;;;;;18.20;99.90;;;;;;5027921;28;20393;-68
2022/06/19 07:30:27;;;;;;;;;;;18.30;99.90;;;;;;5031715;28;19925;-68
2022/06/19 07:32:53;;;;;;;;;;;18.40;99.90;;;;;;5031602;28;19932;-67
2022/06/19 07:35:20;;;;;;;;;;;18.50;99.90;;;;;;5033635;28;19975;-70
2022/06/19 07:37:47;;;;;;;;;;;18.50;99.90;;;;;;5036893;28;20308;-69
2022/06/19 07:40:15;;;;;;;;;;;18.50;99.90;;;;;;5048881;28;19971;-69
2022/06/19 07:42:44;;;;;;;;;;;18.60;99.90;;;;;;5031354;28;19941;-69
2022/06/19 07:45:11;;;;;;;;;;;18.50;99.90;;;;;;5031685;28;20404;-68
2022/06/19 07:50:23;;;;;;;;;;;18.70;99.90;;;;;;5031938;28;19981;-67
2022/06/19 07:52:50;;;;;;;;;;;18.70;99.90;;;;;;5035976;28;19935;-68
2022/06/19 07:55:18;;;;;;;;;;;18.70;99.90;;;;;;5042127;28;19925;-68
2022/06/19 07:57:46;;;;;;;;;;;18.40;99.90;;;;;;5035007;28;19975;-68
2022/06/19 08:00:16;;;;;;;;;;;18.40;99.90;;;;;;5039238;28;19979;-67
2022/06/19 08:02:43;;;;;;;;;;;18.50;99.90;;;;;;5033470;28;20316;-67
2022/06/19 08:05:12;;;;;;;;;;;18.60;99.90;;;;;;5026714;28;20013;-68
2022/06/19 08:07:38;;;;;;;;;;;18.70;99.90;;;;;;5028046;28;19926;-69
2022/06/19 08:10:06;;;;;;;;;;;18.70;99.90;;;;;;5019360;28;20389;-69
2022/06/19 08:12:33;;;;;;;;;;;18.80;99.90;;;;;;5031617;28;19932;-70
2022/06/19 08:15:01;;;;;;;;;;;18.90;99.90;;;;;;5032567;28;19929;-69
2022/06/19 08:17:28;;;;;;;;;;;18.80;99.90;;;;;;5032544;28;19937;-69
2022/06/19 08:19:54;;;;;;;;;;;18.80;99.90;;;;;;5032446;28;19929;-69
2022/06/19 08:22:21;;;;;;;;;;;18.90;99.90;;;;;;5038922;28;19929;-69
2022/06/19 08:24:48;;;;;;;;;;;19.30;99.90;;;;;;5031847;28;19929;-69
2022/06/19 08:27:15;;;;;;;;;;;19.60;99.90;;;;;;5031540;28;19971;-70
2022/06/19 08:29:42;;;;;;;;;;;19.70;99.90;;;;;;5029031;28;19925;-69
2022/06/19 08:32:10;;;;;;;;;;;19.70;99.90;;;;;;5031484;28;20434;-75
2022/06/19 08:34:37;;;;;;;;;;;20.00;99.90;;;;;;5030485;28;19972;-70
2022/06/19 08:37:06;;;;;;;;;;;20.10;99.90;;;;;;5034473;28;20411;-69
2022/06/19 08:39:33;;;;;;;;;;;20.20;99.90;;;;;;5031235;28;20455;-70
2022/06/19 08:42:22;;;;;;;;;;;20.40;99.90;;;;;;5034574;28;19951;-70
2022/06/19 08:45:07;;;;;;;;;;;20.60;99.90;;;;;;5031496;28;19979;-69
2022/06/19 08:47:48;;;;;;;;;;;20.30;99.90;;;;;;5031429;28;19987;-70
2022/06/19 08:50:20;;;;;;;;;;;20.30;99.90;;;;;;5030205;28;19968;-70
2022/06/19 08:52:53;;;;;;;;;;;20.50;99.90;;;;;;5030001;28;19983;-69
2022/06/19 08:55:24;;;;;;;;;;;20.70;99.90;;;;;;5030883;28;20371;-68
2022/06/19 08:57:54;;;;;;;;;;;20.80;99.90;;;;;;5032555;28;19987;-67
2022/06/19 09:00:23;;;;;;;;;;;20.80;99.90;;;;;;5030886;28;20428;-69
2022/06/19 09:02:57;;;;;;;;;;;20.60;99.90;;;;;;5031391;28;20432;-68
2022/06/19 09:05:37;;;;;;;;;;;20.70;99.90;;;;;;5030949;28;19972;-68
2022/06/19 09:08:22;;;;;;;;;;;20.60;99.90;;;;;;5034111;28;19921;-69
2022/06/19 09:10:51;;;;;;;;;;;20.70;99.90;;;;;;5045702;28;20351;-70
2022/06/19 09:13:21;;;;;;;;;;;20.80;99.90;;;;;;5038019;28;19925;-69
2022/06/19 09:15:51;;;;;;;;;;;20.80;99.90;;;;;;5033204;28;19947;-69
2022/06/19 09:18:22;;;;;;;;;;;21.10;99.90;;;;;;5034253;28;19947;-69
2022/06/19 09:20:54;;;;;;;;;;;21.00;99.90;;;;;;5038831;28;20384;-69
2022/06/19 09:23:32;;;;;;;;;;;21.10;99.90;;;;;;5024688;28;19994;-68
2022/06/19 09:26:02;;;;;;;;;;;21.10;99.90;;;;;;5033425;28;19976;-69
2022/06/19 09:28:32;;;;;;;;;;;21.40;99.90;;;;;;5030335;28;19929;-69
2022/06/19 09:31:03;;;;;;;;;;;21.60;99.90;;;;;;5032100;28;20361;-69
2022/06/19 09:33:37;;;;;;;;;;;22.00;99.90;;;;;;5033750;28;19933;-69
2022/06/19 09:36:07;;;;;;;;;;;22.20;99.90;;;;;;5031259;28;19979;-69
2022/06/19 09:38:38;;;;;;;;;;;22.70;99.90;;;;;;5028112;28;19925;-69
2022/06/19 09:41:08;;;;;;;;;;;22.70;99.90;;;;;;5033867;28;19925;-67
2022/06/19 09:43:38;;;;;;;;;;;22.60;99.90;;;;;;5024829;28;19932;-69
2022/06/19 09:46:07;;;;;;;;;;;22.20;99.90;;;;;;5037958;28;19928;-69
2022/06/19 09:48:39;;;;;;;;;;;21.80;99.90;;;;;;5041353;28;19932;-69
2022/06/19 09:51:07;;;;;;;;;;;21.40;99.90;;;;;;5026391;28;19929;-69
2022/06/19 09:53:37;;;;;;;;;;;21.50;99.90;;;;;;5023695;28;20359;-69
2022/06/19 09:56:07;;;;;;;;;;;21.70;99.90;;;;;;5030227;28;19925;-69
2022/06/19 09:58:35;;;;;;;;;;;22.00;99.90;;;;;;5029546;28;20047;-68
2022/06/19 10:01:04;;;;;;;;;;;22.20;99.90;;;;;;5034587;28;20397;-69
2022/06/19 10:03:34;;;;;;;;;;;21.90;99.90;;;;;;5028672;28;20023;-69
2022/06/19 10:06:09;;;;;;;;;;;21.80;99.90;;;;;;5027874;28;19932;-68
2022/06/19 10:08:40;;;;;;;;;;;22.00;99.90;;;;;;5046997;28;19972;-69
2022/06/19 10:11:09;;;;;;;;;;;22.30;99.90;;;;;;5029405;28;19929;-69
2022/06/19 10:13:37;;;;;;;;;;;22.40;99.90;;;;;;5029375;28;19931;-69
2022/06/19 10:16:05;;;;;;;;;;;22.60;99.90;;;;;;5024234;28;19932;-69
2022/06/19 10:18:33;;;;;;;;;;;22.70;99.90;;;;;;5029575;28;19964;-69
2022/06/19 10:21:04;;;;;;;;;;;22.40;99.90;;;;;;5024019;28;19929;-69
2022/06/19 10:23:41;;;;;;;;;;;22.60;99.90;;;;;;5032114;28;19929;-68
2022/06/19 10:26:20;;;;;;;;;;;22.60;99.90;;;;;;5028521;28;19925;-68
2022/06/19 10:29:02;;;;;;;;;;;22.50;99.90;;;;;;5024002;28;19929;-69
2022/06/19 10:31:36;;;;;;;;;;;22.50;99.90;;;;;;5030742;28;19925;-68
2022/06/19 10:34:07;;;;;;;;;;;22.90;99.90;;;;;;5030442;28;20016;-68
2022/06/19 10:36:38;;;;;;;;;;;23.00;99.90;;;;;;5026460;28;19932;-67
2022/06/19 10:39:16;;;;;;;;;;;23.00;99.90;;;;;;5028185;28;19925;-66
2022/06/19 10:42:04;;;;;;;;;;;22.50;99.90;;;;;;5029616;28;20347;-67
2022/06/19 10:44:41;;;;;;;;;;;22.70;99.90;;;;;;5028000;28;19968;-67
2022/06/19 10:47:11;;;;;;;;;;;23.10;99.90;;;;;;5032522;28;19932;-67
2022/06/19 10:49:52;;;;;;;;;;;23.10;99.90;;;;;;5023677;28;20415;-67
2022/06/19 10:52:21;;;;;;;;;;;23.30;99.90;;;;;;5029517;28;19971;-67
2022/06/19 10:54:57;;;;;;;;;;;23.50;99.90;;;;;;5029237;28;20008;-67
2022/06/19 10:57:30;;;;;;;;;;;23.70;99.90;;;;;;5029536;28;20040;-67
2022/06/19 10:59:57;;;;;;;;;;;23.70;99.90;;;;;;5029191;28;19925;-67
2022/06/19 11:05:17;;;;;;;;;;;23.80;99.90;;;;;;5030895;28;19987;-69
2022/06/19 11:07:43;;;;;;;;;;;24.10;99.90;;;;;;5032845;28;19925;-67
2022/06/19 11:10:17;;;;;;;;;;;24.10;99.90;;;;;;5032097;28;19931;-67
2022/06/19 11:12:46;;;;;;;;;;;24.20;99.90;;;;;;5033102;28;19926;-67
2022/06/19 11:15:18;;;;;;;;;;;24.70;99.90;;;;;;5028397;28;19929;-67
2022/06/19 11:17:45;;;;;;;;;;;24.70;99.90;;;;;;5037937;28;19925;-67
2022/06/19 11:20:19;;;;;;;;;;;24.80;99.90;;;;;;5032333;28;19925;-68
2022/06/19 11:22:47;;;;;;;;;;;24.80;99.90;;;;;;5036872;28;19925;-67
2022/06/19 11:25:35;;;;;;;;;;;24.60;99.90;;;;;;5039545;28;19929;-68
2022/06/19 11:28:04;;;;;;;;;;;24.50;99.90;;;;;;5025019;28;20294;-66
2022/06/19 11:30:33;;;;;;;;;;;24.30;99.90;;;;;;5032021;28;19990;-66
2022/06/19 11:33:00;;;;;;;;;;;24.70;99.90;;;;;;5032102;28;19932;-67
2022/06/19 11:35:36;;;;;;;;;;;24.90;99.90;;;;;;5026557;28;19999;-66
2022/06/19 11:38:03;;;;;;;;;;;25.10;99.90;;;;;;5035961;28;19980;-67
2022/06/19 11:40:31;;;;;;;;;;;25.20;99.90;;;;;;5031178;28;19929;-67
2022/06/19 11:42:59;;;;;;;;;;;25.10;99.90;;;;;;5032479;28;19925;-65
2022/06/19 11:45:28;;;;;;;;;;;24.70;99.90;;;;;;5028589;28;19925;-66
2022/06/19 11:48:02;;;;;;;;;;;24.70;99.90;;;;;;5032214;28;19946;-70
2022/06/19 11:50:38;;;;;;;;;;;25.10;99.90;;;;;;5035393;28;19925;-68
2022/06/19 11:53:12;;;;;;;;;;;25.30;99.90;;;;;;5032243;28;20384;-68
2022/06/19 11:55:40;;;;;;;;;;;25.80;99.90;;;;;;5030854;28;19925;-68
2022/06/19 11:58:17;;;;;;;;;;;26.20;99.90;;;;;;5030902;28;20063;-71
2022/06/19 12:00:44;;;;;;;;;;;26.80;99.90;;;;;;5031807;28;19925;-67
2022/06/19 12:03:17;;;;;;;;;;;27.90;99.90;;;;;;5032102;28;19984;-68
2022/06/19 12:05:50;;;;;;;;;;;28.10;99.90;;;;;;5031789;28;19929;-68
2022/06/19 12:08:19;;;;;;;;;;;28.30;99.90;;;;;;5031834;28;19933;-67
2022/06/19 12:10:51;;;;;;;;;;;28.70;99.90;;;;;;5038306;28;19925;-67
2022/06/19 12:13:23;;;;;;;;;;;28.90;99.90;;;;;;5033497;28;19926;-67
2022/06/19 12:15:54;;;;;;;;;;;29.30;99.90;;;;;;5030865;28;20315;-68
2022/06/19 12:18:21;;;;;;;;;;;29.70;99.90;;;;;;5031838;28;19925;-68
2022/06/19 12:20:56;;;;;;;;;;;30.30;99.90;;;;;;5030819;28;19925;-68
2022/06/19 12:23:25;;;;;;;;;;;30.10;99.90;;;;;;5033025;28;20071;-68
2022/06/19 12:25:54;;;;;;;;;;;29.60;99.90;;;;;;5029308;28;20297;-68
2022/06/19 12:28:26;;;;;;;;;;;30.30;99.90;;;;;;5023826;28;19971;-68
2022/06/19 12:30:54;;;;;;;;;;;30.70;99.90;;;;;;5031041;28;20354;-68
2022/06/19 12:33:24;;;;;;;;;;;31.10;99.90;;;;;;5030939;28;19955;-68
2022/06/19 12:35:51;;;;;;;;;;;30.00;99.90;;;;;;5030918;28;19925;-68
2022/06/19 12:38:19;;;;;;;;;;;29.60;99.90;;;;;;5028073;28;20309;-67
2022/06/19 12:40:57;;;;;;;;;;;28.60;99.90;;;;;;5028467;28;19925;-68
2022/06/19 12:43:30;;;;;;;;;;;27.30;99.90;;;;;;5027473;28;19968;-69
2022/06/19 12:45:58;;;;;;;;;;;27.40;99.90;;;;;;5032736;28;19932;-69
2022/06/19 12:48:42;;;;;;;;;;;27.80;99.90;;;;;;5030993;28;19925;-68
2022/06/19 12:51:12;;;;;;;;;;;27.50;99.90;;;;;;5031057;28;20367;-69
2022/06/19 12:54:03;;;;;;;;;;;26.50;99.90;;;;;;5027614;28;19925;-69
2022/06/19 12:56:34;;;;;;;;;;;26.40;99.90;;;;;;5026552;28;19925;-68
2022/06/19 12:59:19;;;;;;;;;;;26.60;99.90;;;;;;5030638;28;20359;-68
2022/06/19 13:01:52;;;;;;;;;;;26.70;99.90;;;;;;5024849;28;19929;-69
2022/06/19 13:04:29;;;;;;;;;;;26.10;99.90;;;;;;5029212;28;20367;-68
2022/06/19 13:07:01;;;;;;;;;;;25.70;99.90;;;;;;5029447;28;19925;-68
2022/06/19 13:09:39;;;;;;;;;;;25.50;99.90;;;;;;5046587;28;20331;-68
2022/06/19 13:12:13;;;;;;;;;;;24.50;99.90;;;;;;5030918;28;19925;-68
2022/06/19 13:14:54;;;;;;;;;;;24.40;99.90;;;;;;5038077;28;19971;-69
2022/06/19 13:17:26;;;;;;;;;;;24.20;99.90;;;;;;5028067;28;19925;-68
2022/06/19 13:19:58;;;;;;;;;;;23.70;99.90;;;;;;5042243;28;19925;-68
2022/06/19 13:22:37;;;;;;;;;;;24.00;99.90;;;;;;5030503;28;19929;-68
2022/06/19 13:25:09;;;;;;;;;;;24.00;99.90;;;;;;5032876;28;20371;-68
2022/06/19 13:27:43;;;;;;;;;;;23.60;99.90;;;;;;5030115;28;19993;-69
2022/06/19 13:30:17;;;;;;;;;;;23.40;99.90;;;;;;5031555;28;19987;-68
2022/06/19 13:32:51;;;;;;;;;;;23.40;99.90;;;;;;5035542;28;19929;-69
2022/06/19 13:35:26;;;;;;;;;;;24.70;99.90;;;;;;5029236;28;20178;-69
2022/06/19 13:37:57;;;;;;;;;;;25.60;99.90;;;;;;5029582;28;19929;-69
2022/06/19 13:40:26;;;;;;;;;;;26.50;99.90;;;;;;5029354;28;19933;-69
2022/06/19 13:43:01;;;;;;;;;;;27.50;99.90;;;;;;5030215;28;19978;-68
2022/06/19 13:45:33;;;;;;;;;;;27.50;99.90;;;;;;5025694;28;19925;-69
2022/06/19 13:48:06;;;;;;;;;;;27.80;99.90;;;;;;5026684;28;19929;-68
2022/06/19 13:50:37;;;;;;;;;;;26.80;99.90;;;;;;5036243;28;19975;-68
2022/06/19 13:53:06;;;;;;;;;;;26.20;99.90;;;;;;5026459;28;19929;-69
2022/06/19 13:55:38;;;;;;;;;;;25.40;99.90;;;;;;5028274;28;19979;-68
2022/06/19 13:58:09;;;;;;;;;;;25.30;99.90;;;;;;5030015;28;19932;-69
2022/06/19 14:00:40;;;;;;;;;;;26.00;99.90;;;;;;5027609;28;20429;-69
2022/06/19 14:03:20;;;;;;;;;;;25.70;99.90;;;;;;5028852;28;19929;-69
2022/06/19 14:05:48;;;;;;;;;;;25.70;99.90;;;;;;5036527;28;19932;-69
2022/06/19 14:08:19;;;;;;;;;;;25.40;99.90;;;;;;5031571;28;19931;-69
2022/06/19 14:10:48;;;;;;;;;;;25.10;99.90;;;;;;5025602;28;19929;-69
2022/06/19 14:13:25;;;;;;;;;;;25.20;99.90;;;;;;5030104;28;19950;-69
2022/06/19 14:15:57;;;;;;;;;;;25.50;99.90;;;;;;5029707;28;19929;-69
2022/06/19 14:18:31;;;;;;;;;;;25.90;99.90;;;;;;5028502;28;19933;-68
2022/06/19 14:21:02;;;;;;;;;;;25.80;99.90;;;;;;5032624;28;20430;-69
2022/06/19 14:23:35;;;;;;;;;;;26.40;99.90;;;;;;5045439;28;19929;-69
2022/06/19 14:26:05;;;;;;;;;;;27.40;99.90;;;;;;5034257;28;19925;-69
2022/06/19 14:28:34;;;;;;;;;;;27.80;99.90;;;;;;5029485;28;19925;-69
2022/06/19 14:31:01;;;;;;;;;;;29.10;99.90;;;;;;5028919;28;19925;-69
2022/06/19 14:33:40;;;;;;;;;;;28.70;99.90;;;;;;5028374;28;19933;-69
2022/06/19 14:36:10;;;;;;;;;;;28.90;99.90;;;;;;5029983;28;20312;-69
2022/06/19 14:38:37;;;;;;;;;;;29.20;99.90;;;;;;5028949;28;19925;-69